Time;durP1;ratioP1;P1;durP2;ratioP2;P2;SDS_P1;SDS_P2;PMS_P1;PMS_P2;Temp;Humidity;BMP_temperature;BMP_pressure;BME280_temperature;BME280_humidity;BME280_pressure;Samples;Min_cycle;Max_cycle;Signal;HPM_P1;HPM_P2
2022/08/28 00:01:20;;;;;;;9.33;3.33;;;21.00;99.90;;;;;;5041515;28;20298;-92
2022/08/28 00:03:51;;;;;;;9.43;3.00;;;20.90;99.90;;;;;;5042679;28;20247;-92
2022/08/28 00:06:23;;;;;;;9.07;2.97;;;20.70;99.90;;;;;;5061458;28;20273;-93
2022/08/28 00:08:57;;;;;;;11.07;3.50;;;20.70;99.90;;;;;;5061469;28;20259;-92
2022/08/28 00:11:31;;;;;;;8.83;3.07;;;20.60;99.90;;;;;;5060900;28;20220;-92
2022/08/28 00:14:04;;;;;;;7.13;3.10;;;20.60;99.90;;;;;;5060310;28;20257;-91
2022/08/28 00:16:35;;;;;;;7.43;3.07;;;20.60;99.90;;;;;;5060040;28;20239;-92
2022/08/28 00:19:08;;;;;;;9.83;2.97;;;20.50;99.90;;;;;;5060389;28;20212;-92
2022/08/28 00:21:42;;;;;;;8.03;2.90;;;20.80;99.90;;;;;;5059931;28;20231;-92
2022/08/28 00:24:14;;;;;;;6.00;3.10;;;20.90;99.90;;;;;;5060558;28;20648;-92
2022/08/28 00:29:34;;;;;;;8.60;2.87;;;20.90;99.90;;;;;;5059768;28;20281;-92
2022/08/28 00:32:07;;;;;;;9.43;2.90;;;20.90;99.90;;;;;;5059715;28;20287;-91
2022/08/28 00:34:39;;;;;;;9.07;3.20;;;21.30;99.90;;;;;;5060860;28;20208;-91
2022/08/28 00:37:10;;;;;;;7.47;2.93;;;21.50;99.90;;;;;;5062566;28;20204;-91
2022/08/28 00:39:41;;;;;;;7.73;2.70;;;21.80;99.90;;;;;;5059891;28;20227;-91
2022/08/28 00:42:16;;;;;;;6.50;2.73;;;22.00;99.90;;;;;;5059241;28;20232;-90
2022/08/28 00:44:48;;;;;;;9.43;2.70;;;22.30;99.90;;;;;;5061958;28;20207;-91
2022/08/28 00:47:25;;;;;;;6.17;2.80;;;22.50;99.90;;;;;;5060377;28;20239;-91
2022/08/28 00:49:57;;;;;;;10.77;2.80;;;22.30;99.90;;;;;;5059622;28;20215;-91
2022/08/28 00:52:29;;;;;;;9.47;2.80;;;22.50;99.90;;;;;;5060080;28;20216;-91
2022/08/28 00:55:03;;;;;;;6.87;2.67;;;22.50;99.90;;;;;;5059790;28;20213;-91
2022/08/28 00:57:40;;;;;;;8.23;2.93;;;22.40;99.90;;;;;;5060938;28;20213;-92
2022/08/28 01:00:15;;;;;;;7.90;2.80;;;22.40;99.90;;;;;;5059247;28;20215;-90
2022/08/28 01:02:47;;;;;;;6.47;2.77;;;22.50;99.90;;;;;;5058025;28;20232;-91
2022/08/28 01:05:18;;;;;;;6.17;3.10;;;22.20;99.90;;;;;;5059928;28;20375;-91
2022/08/28 01:07:51;;;;;;;6.00;2.77;;;22.10;99.90;;;;;;5062476;28;20664;-90
2022/08/28 01:10:24;;;;;;;7.87;3.00;;;22.20;99.90;;;;;;5068211;28;20246;-90
2022/08/28 01:12:59;;;;;;;8.03;3.20;;;22.30;99.90;;;;;;5068354;28;20204;-90
2022/08/28 01:15:34;;;;;;;10.60;2.97;;;22.50;99.90;;;;;;5067026;28;20238;-91
2022/08/28 01:18:08;;;;;;;8.13;2.77;;;22.60;99.90;;;;;;5060649;28;20211;-92
2022/08/28 01:20:46;;;;;;;5.70;2.70;;;22.60;99.90;;;;;;5064109;28;20184;-92
2022/08/28 01:23:27;;;;;;;9.50;3.17;;;22.20;99.90;;;;;;5061174;28;20256;-94
2022/08/28 01:26:01;;;;;;;6.70;2.97;;;21.70;99.90;;;;;;5059958;28;20208;-92
2022/08/28 01:28:42;;;;;;;5.90;3.03;;;21.40;99.90;;;;;;5060226;28;20656;-92
2022/08/28 01:31:15;;;;;;;6.83;3.17;;;21.00;99.90;;;;;;5059288;28;20205;-93
2022/08/28 01:33:48;;;;;;;8.67;3.13;;;20.70;99.90;;;;;;5059632;28;20218;-93
2022/08/28 01:36:20;;;;;;;10.93;2.80;;;20.50;99.90;;;;;;5062013;28;20263;-93
2022/08/28 01:38:54;;;;;;;7.80;2.70;;;20.30;99.90;;;;;;5060566;28;20212;-93
2022/08/28 01:41:28;;;;;;;8.00;2.77;;;20.10;99.90;;;;;;5061816;28;20242;-95
2022/08/28 01:43:59;;;;;;;6.40;2.43;;;19.90;99.90;;;;;;5074877;28;20233;-92
2022/08/28 01:46:30;;;;;;;5.40;2.83;;;19.80;99.90;;;;;;5057299;28;20193;-93
2022/08/28 01:49:02;;;;;;;8.97;3.00;;;19.70;99.90;;;;;;5056219;28;20225;-93
2022/08/28 01:51:46;;;;;;;7.50;3.07;;;19.70;99.90;;;;;;5056248;28;20266;-93
2022/08/28 01:54:21;;;;;;;6.33;2.40;;;19.60;99.90;;;;;;5056898;28;20196;-92
2022/08/28 01:56:56;;;;;;;8.03;2.53;;;19.50;99.90;;;;;;5075381;28;20185;-93
2022/08/28 01:59:28;;;;;;;6.23;2.40;;;19.40;99.90;;;;;;5076777;28;20203;-93
2022/08/28 02:01:59;;;;;;;11.03;2.83;;;19.30;99.90;;;;;;5075795;28;20247;-93
2022/08/28 02:04:31;;;;;;;7.10;2.67;;;19.20;99.90;;;;;;5068190;28;20208;-92
2022/08/28 02:07:03;;;;;;;6.07;2.80;;;19.10;99.90;;;;;;5064189;28;20284;-92
2022/08/28 02:09:35;;;;;;;8.53;3.27;;;19.00;99.90;;;;;;5064147;28;20212;-91
2022/08/28 02:12:09;;;;;;;7.83;2.90;;;18.90;99.90;;;;;;5060997;28;20622;-92
2022/08/28 02:14:42;;;;;;;7.73;2.90;;;18.90;99.90;;;;;;5066786;28;20222;-92
2022/08/28 02:17:14;;;;;;;9.20;3.13;;;18.80;99.90;;;;;;5062574;28;20204;-94
2022/08/28 02:19:46;;;;;;;7.40;2.90;;;18.70;99.90;;;;;;5062441;28;20262;-92
2022/08/28 02:22:18;;;;;;;9.27;3.00;;;18.60;99.90;;;;;;5065834;28;20220;-91
2022/08/28 02:24:50;;;;;;;8.13;3.37;;;18.60;99.90;;;;;;5061678;28;20219;-92
2022/08/28 02:27:23;;;;;;;6.67;2.47;;;18.60;99.90;;;;;;5061915;28;20212;-92
2022/08/28 02:29:55;;;;;;;7.17;2.70;;;18.50;99.90;;;;;;5075282;28;20196;-92
2022/08/28 02:32:27;;;;;;;4.50;2.97;;;18.50;99.90;;;;;;5070696;28;20219;-93
2022/08/28 02:34:58;;;;;;;6.30;3.00;;;18.40;99.90;;;;;;5057149;28;20189;-92
2022/08/28 02:37:29;;;;;;;6.67;2.93;;;18.40;99.90;;;;;;5056855;28;20351;-92
2022/08/28 02:40:01;;;;;;;5.43;2.97;;;18.30;99.90;;;;;;5056017;28;20231;-92
2022/08/28 02:42:35;;;;;;;6.70;3.50;;;18.20;99.90;;;;;;5050087;28;20239;-92
2022/08/28 02:45:10;;;;;;;6.57;3.27;;;18.20;99.90;;;;;;5040998;28;20630;-93
2022/08/28 02:47:43;;;;;;;7.63;3.37;;;18.10;99.90;;;;;;5040387;28;20216;-93
2022/08/28 02:50:18;;;;;;;6.70;3.20;;;18.00;99.90;;;;;;5046148;28;20209;-93
2022/08/28 02:52:49;;;;;;;7.70;3.50;;;17.90;99.90;;;;;;5038950;28;20227;-93
2022/08/28 02:55:21;;;;;;;6.97;3.40;;;17.80;99.90;;;;;;5039335;28;20298;-93
2022/08/28 02:57:55;;;;;;;10.20;3.60;;;17.70;99.90;;;;;;5039175;28;20209;-94
2022/08/28 03:00:27;;;;;;;6.37;3.20;;;17.60;99.90;;;;;;5039733;28;20251;-92
2022/08/28 03:02:59;;;;;;;9.90;3.60;;;17.50;99.90;;;;;;5038163;28;20256;-91
2022/08/28 03:05:31;;;;;;;7.37;3.50;;;17.50;99.90;;;;;;5038247;28;20229;-91
2022/08/28 03:08:03;;;;;;;7.73;3.33;;;17.40;99.90;;;;;;5039363;28;20252;-93
2022/08/28 03:10:34;;;;;;;6.17;3.10;;;17.30;99.90;;;;;;5039097;28;20236;-93
2022/08/28 03:13:08;;;;;;;9.13;3.93;;;17.20;99.90;;;;;;5038969;28;20692;-93
2022/08/28 03:15:56;;;;;;;6.97;3.20;;;17.10;99.90;;;;;;5054752;28;20583;-92
2022/08/28 03:18:31;;;;;;;6.90;3.40;;;17.10;99.90;;;;;;5059994;28;20238;-93
2022/08/28 03:21:03;;;;;;;4.43;3.17;;;17.00;99.90;;;;;;5059830;28;20521;-93
2022/08/28 03:23:34;;;;;;;7.17;3.50;;;16.90;99.90;;;;;;5057719;28;20274;-93
2022/08/28 03:26:07;;;;;;;6.57;3.20;;;16.80;99.90;;;;;;5059048;28;20254;-92
2022/08/28 03:28:43;;;;;;;6.40;3.07;;;16.70;99.90;;;;;;5059327;28;20648;-93
2022/08/28 03:31:16;;;;;;;6.27;3.20;;;16.70;99.90;;;;;;5058926;28;20200;-93
2022/08/28 03:33:48;;;;;;;5.63;3.43;;;16.70;99.90;;;;;;5058597;28;20303;-93
2022/08/28 03:36:23;;;;;;;9.40;3.30;;;16.70;99.90;;;;;;5058443;28;20204;-93
2022/08/28 03:38:57;;;;;;;6.97;3.50;;;16.70;99.90;;;;;;5058484;28;20261;-94
2022/08/28 03:41:30;;;;;;;8.23;3.20;;;16.70;99.90;;;;;;5057359;28;20277;-93
2022/08/28 03:44:06;;;;;;;7.37;3.17;;;16.80;99.90;;;;;;5058358;28;20236;-93
2022/08/28 03:46:39;;;;;;;5.40;3.47;;;16.80;99.90;;;;;;5058863;28;20204;-93
2022/08/28 03:49:12;;;;;;;9.70;3.33;;;16.90;99.90;;;;;;5058065;28;20273;-93
2022/08/28 03:51:43;;;;;;;7.77;3.30;;;16.90;99.90;;;;;;5057790;28;20607;-93
2022/08/28 03:54:15;;;;;;;7.47;3.10;;;16.90;99.90;;;;;;5059279;28;20208;-93
2022/08/28 03:56:48;;;;;;;8.47;3.73;;;16.90;99.90;;;;;;5061878;28;20204;-94
2022/08/28 03:59:24;;;;;;;6.90;3.50;;;17.00;99.90;;;;;;5059396;28;20204;-93
2022/08/28 04:02:00;;;;;;;9.60;3.77;;;17.00;99.90;;;;;;5059084;28;20219;-93
2022/08/28 04:04:32;;;;;;;6.87;3.67;;;17.00;99.90;;;;;;5059568;28;20244;-91
2022/08/28 04:07:03;;;;;;;8.63;3.17;;;16.90;99.90;;;;;;5058646;28;20256;-91
2022/08/28 04:09:34;;;;;;;7.33;3.20;;;16.90;99.90;;;;;;5060941;28;20217;-91
2022/08/28 04:12:06;;;;;;;4.97;2.90;;;16.70;99.90;;;;;;5072181;28;20197;-92
2022/08/28 04:14:41;;;;;;;6.80;3.57;;;16.60;99.90;;;;;;5074194;28;20219;-91
2022/08/28 04:17:13;;;;;;;11.00;4.07;;;16.60;99.90;;;;;;5070159;28;20204;-92
2022/08/28 04:19:46;;;;;;;11.40;3.67;;;16.50;99.90;;;;;;5058425;28;20278;-92
2022/08/28 04:22:18;;;;;;;8.03;3.73;;;16.50;99.90;;;;;;5057648;28;20196;-92
2022/08/28 04:24:52;;;;;;;9.43;3.50;;;16.40;99.90;;;;;;5057551;28;20254;-92
2022/08/28 04:27:25;;;;;;;7.17;3.63;;;16.40;99.90;;;;;;5057937;28;20290;-92
2022/08/28 04:29:59;;;;;;;11.47;3.67;;;16.40;99.90;;;;;;5049815;28;20563;-93
2022/08/28 04:32:30;;;;;;;6.13;3.60;;;16.40;99.90;;;;;;5037467;28;20239;-92
2022/08/28 04:35:01;;;;;;;6.97;3.80;;;16.30;99.90;;;;;;5040000;28;20205;-92
2022/08/28 04:37:33;;;;;;;12.90;4.23;;;16.30;99.90;;;;;;5043936;28;20205;-92
2022/08/28 04:40:07;;;;;;;10.47;3.93;;;16.30;99.90;;;;;;5045050;28;20209;-92
2022/08/28 04:42:41;;;;;;;8.53;3.87;;;16.30;99.90;;;;;;5048968;28;20213;-92
2022/08/28 04:45:14;;;;;;;7.17;3.27;;;16.20;99.90;;;;;;5067362;28;20228;-92
2022/08/28 04:47:47;;;;;;;7.97;3.90;;;16.10;99.90;;;;;;5077408;28;20217;-92
2022/08/28 04:50:18;;;;;;;10.50;3.77;;;16.10;99.90;;;;;;5065800;28;20287;-93
2022/08/28 04:52:51;;;;;;;8.63;3.77;;;16.10;99.90;;;;;;5061380;28;20215;-92
2022/08/28 04:55:23;;;;;;;9.10;4.00;;;16.00;99.90;;;;;;5060339;28;20261;-93
2022/08/28 04:58:15;;;;;;;7.40;3.50;;;16.00;99.90;;;;;;5060014;28;20205;-93
2022/08/28 05:00:55;;;;;;;7.83;3.77;;;15.90;99.90;;;;;;5060206;28;20219;-93
2022/08/28 05:03:26;;;;;;;9.17;3.93;;;15.90;99.90;;;;;;5060145;28;20290;-93
2022/08/28 05:05:59;;;;;;;6.20;3.50;;;15.90;99.90;;;;;;5060080;28;20232;-93
2022/08/28 05:08:31;;;;;;;9.20;3.60;;;15.90;99.90;;;;;;5060322;28;20250;-93
2022/08/28 05:11:13;;;;;;;6.73;3.67;;;15.90;99.90;;;;;;5060382;28;20204;-92
2022/08/28 05:14:05;;;;;;;7.03;4.03;;;15.90;99.90;;;;;;5065646;28;20204;-93
2022/08/28 05:16:46;;;;;;;9.60;3.83;;;15.80;99.90;;;;;;5068704;28;20200;-92
2022/08/28 05:19:18;;;;;;;7.50;4.00;;;15.70;99.90;;;;;;5062970;28;20212;-93
2022/08/28 05:21:49;;;;;;;6.53;3.97;;;15.70;99.90;;;;;;5061481;28;20200;-93
2022/08/28 05:24:21;;;;;;;9.30;4.20;;;15.70;99.90;;;;;;5062172;28;20232;-93
2022/08/28 05:26:54;;;;;;;9.97;4.10;;;15.60;99.90;;;;;;5061621;28;20648;-93
2022/08/28 05:29:26;;;;;;;9.27;4.20;;;15.50;99.90;;;;;;5064294;28;20227;-93
2022/08/28 05:31:59;;;;;;;9.03;3.60;;;15.60;99.90;;;;;;5060455;28;20212;-93
2022/08/28 05:34:31;;;;;;;7.20;3.67;;;15.50;99.90;;;;;;5062397;28;20208;-92
2022/08/28 05:37:02;;;;;;;8.40;3.33;;;15.50;99.90;;;;;;5058829;28;20212;-93
2022/08/28 05:39:33;;;;;;;8.03;4.00;;;15.40;99.90;;;;;;5058745;28;20239;-92
2022/08/28 05:42:05;;;;;;;7.50;3.70;;;15.40;99.90;;;;;;5058722;28;20208;-92
2022/08/28 05:44:37;;;;;;;7.20;3.83;;;15.30;99.90;;;;;;5054074;28;20228;-93
2022/08/28 05:47:12;;;;;;;6.40;3.83;;;15.30;99.90;;;;;;5038075;28;20205;-92
2022/08/28 05:49:43;;;;;;;9.87;3.97;;;15.20;99.90;;;;;;5038922;28;20230;-93
2022/08/28 05:52:15;;;;;;;10.13;3.90;;;15.20;99.90;;;;;;5038666;28;20236;-92
2022/08/28 05:54:47;;;;;;;7.27;3.63;;;15.20;99.90;;;;;;5040196;28;20213;-93
2022/08/28 05:57:19;;;;;;;6.63;3.80;;;15.30;99.90;;;;;;5041327;28;20201;-93
2022/08/28 05:59:52;;;;;;;9.17;4.13;;;15.30;99.90;;;;;;5037826;28;20614;-93
2022/08/28 06:02:26;;;;;;;6.77;3.57;;;15.40;99.90;;;;;;5038406;28;20286;-93
2022/08/28 06:04:58;;;;;;;10.57;3.70;;;15.60;99.90;;;;;;5039370;28;20229;-92
2022/08/28 06:07:30;;;;;;;8.27;3.73;;;15.60;99.90;;;;;;5041314;28;20229;-92
2022/08/28 06:10:02;;;;;;;8.27;3.70;;;15.70;99.90;;;;;;5044548;28;20219;-92
2022/08/28 06:12:35;;;;;;;10.10;3.60;;;15.70;99.90;;;;;;5040262;28;20201;-93
2022/08/28 06:15:06;;;;;;;8.90;3.57;;;15.80;99.90;;;;;;5041532;28;20208;-92
2022/08/28 06:17:40;;;;;;;6.67;3.40;;;15.80;99.90;;;;;;5041688;28;20205;-92
2022/08/28 06:20:13;;;;;;;8.33;3.30;;;15.80;99.90;;;;;;5055117;28;20193;-92
2022/08/28 06:22:44;;;;;;;8.57;3.70;;;15.70;99.90;;;;;;5056797;28;20183;-93
2022/08/28 06:25:15;;;;;;;8.27;3.70;;;15.70;99.90;;;;;;5065701;28;20224;-92
2022/08/28 06:27:47;;;;;;;8.37;4.10;;;15.70;99.90;;;;;;5077284;28;20226;-92
2022/08/28 06:30:19;;;;;;;7.53;3.30;;;15.60;99.90;;;;;;5076664;28;20199;-91
2022/08/28 06:32:55;;;;;;;9.13;3.90;;;15.60;99.90;;;;;;5076229;28;20207;-92
2022/08/28 06:35:27;;;;;;;6.90;3.67;;;15.50;99.90;;;;;;5077018;28;20237;-92
2022/08/28 06:37:59;;;;;;;8.23;3.57;;;15.50;99.90;;;;;;5076170;28;20246;-92
2022/08/28 06:40:30;;;;;;;11.23;4.30;;;15.50;99.90;;;;;;5061499;28;20208;-91
2022/08/28 06:43:02;;;;;;;8.97;4.07;;;15.40;99.90;;;;;;5058686;28;20212;-92
2022/08/28 06:45:33;;;;;;;8.37;3.33;;;15.30;99.90;;;;;;5058512;28;20240;-92
2022/08/28 06:48:07;;;;;;;7.30;3.23;;;15.30;99.90;;;;;;5061356;28;20235;-92
2022/08/28 06:50:43;;;;;;;8.20;3.73;;;15.20;99.90;;;;;;5058595;28;20291;-91
2022/08/28 06:53:16;;;;;;;10.70;3.93;;;15.20;99.90;;;;;;5059272;28;20212;-92
2022/08/28 06:55:57;;;;;;;8.43;3.87;;;15.20;99.90;;;;;;5066636;28;20242;-93
2022/08/28 06:58:28;;;;;;;11.77;3.80;;;15.10;99.90;;;;;;5072712;28;20603;-92
2022/08/28 07:01:09;;;;;;;7.60;3.80;;;15.10;99.90;;;;;;5062308;28;20232;-91
2022/08/28 07:03:47;;;;;;;8.73;3.60;;;15.00;99.90;;;;;;5066486;28;20204;-91
2022/08/28 07:06:18;;;;;;;10.50;4.10;;;15.00;99.90;;;;;;5067788;28;20219;-91
2022/08/28 07:08:51;;;;;;;8.90;3.83;;;15.00;99.90;;;;;;5072667;28;20263;-91
2022/08/28 07:11:25;;;;;;;8.13;3.77;;;14.90;99.90;;;;;;5067439;28;20208;-95
2022/08/28 07:13:57;;;;;;;8.10;3.77;;;14.80;99.90;;;;;;5058143;28;20204;-91
2022/08/28 07:16:31;;;;;;;8.37;4.00;;;14.90;99.90;;;;;;5068338;28;20246;-92
2022/08/28 07:19:04;;;;;;;7.93;3.40;;;14.80;99.90;;;;;;5072573;28;20212;-91
2022/08/28 07:21:36;;;;;;;9.63;3.70;;;14.80;99.90;;;;;;5070109;28;20258;-92
2022/08/28 07:24:09;;;;;;;7.43;3.53;;;14.80;99.90;;;;;;5076359;28;20231;-93
2022/08/28 07:26:42;;;;;;;9.10;3.80;;;15.00;99.90;;;;;;5076437;28;20257;-93
2022/08/28 07:29:15;;;;;;;9.10;3.97;;;15.10;99.90;;;;;;5075663;28;20270;-93
2022/08/28 07:31:47;;;;;;;9.03;4.40;;;15.00;99.90;;;;;;5068264;28;20269;-92
2022/08/28 07:34:23;;;;;;;12.73;4.27;;;15.00;99.90;;;;;;5058906;28;20254;-92
2022/08/28 07:37:02;;;;;;;9.13;3.60;;;15.00;99.90;;;;;;5058272;28;20303;-92
2022/08/28 07:39:33;;;;;;;11.03;3.83;;;14.90;99.90;;;;;;5058663;28;20226;-92
2022/08/28 07:42:05;;;;;;;11.03;4.07;;;15.00;99.90;;;;;;5056807;28;20216;-91
2022/08/28 07:44:49;;;;;;;10.07;4.17;;;15.00;99.90;;;;;;5056870;28;20203;-92
2022/08/28 07:47:20;;;;;;;8.27;4.23;;;14.90;99.90;;;;;;5057099;28;20234;-92
2022/08/28 07:49:55;;;;;;;10.50;4.40;;;14.90;99.90;;;;;;5056555;28;20283;-92
2022/08/28 07:52:28;;;;;;;9.37;4.10;;;14.90;99.90;;;;;;5056167;28;20227;-92
2022/08/28 07:54:59;;;;;;;8.00;3.33;;;14.90;99.90;;;;;;5056778;28;20212;-92
2022/08/28 07:57:31;;;;;;;4.93;3.30;;;14.80;99.90;;;;;;5056825;28;20260;-92
2022/08/28 08:00:02;;;;;;;9.93;3.97;;;14.80;99.90;;;;;;5056205;28;20235;-92
2022/08/28 08:02:34;;;;;;;11.03;4.17;;;14.80;99.90;;;;;;5056101;28;20254;-92
2022/08/28 08:05:07;;;;;;;9.30;4.20;;;14.80;99.90;;;;;;5056524;28;20315;-92
2022/08/28 08:07:41;;;;;;;11.80;4.40;;;14.80;99.90;;;;;;5057160;28;20223;-92
2022/08/28 08:10:15;;;;;;;11.77;4.07;;;14.80;99.90;;;;;;5057980;28;20215;-92
2022/08/28 08:12:50;;;;;;;11.37;4.17;;;14.80;99.90;;;;;;5059542;28;20265;-92
2022/08/28 08:15:21;;;;;;;9.00;3.67;;;14.80;99.90;;;;;;5060035;28;20223;-92
2022/08/28 08:17:52;;;;;;;10.00;3.87;;;14.80;99.90;;;;;;5060084;28;20208;-93
2022/08/28 08:20:27;;;;;;;11.70;3.87;;;14.70;99.90;;;;;;5059848;28;20624;-92
2022/08/28 08:22:58;;;;;;;8.67;3.80;;;14.70;99.90;;;;;;5059003;28;20232;-92
2022/08/28 08:25:29;;;;;;;10.97;3.77;;;14.70;99.90;;;;;;5059861;28;20236;-92
2022/08/28 08:28:03;;;;;;;10.70;4.57;;;14.60;99.90;;;;;;5059290;28;20212;-92
2022/08/28 08:30:35;;;;;;;11.80;4.20;;;14.60;99.90;;;;;;5059796;28;20211;-92
2022/08/28 08:33:06;;;;;;;9.23;4.27;;;14.60;99.90;;;;;;5058803;28;20242;-92
2022/08/28 08:35:40;;;;;;;8.87;4.10;;;14.60;99.90;;;;;;5059475;28;20334;-92
2022/08/28 08:38:11;;;;;;;12.60;4.47;;;14.60;99.90;;;;;;5061483;28;20652;-92
2022/08/28 08:40:42;;;;;;;10.60;4.13;;;14.60;99.90;;;;;;5055082;28;20209;-92
2022/08/28 08:43:17;;;;;;;9.00;3.80;;;14.60;99.90;;;;;;5039581;28;20297;-92
2022/08/28 08:45:51;;;;;;;12.87;4.67;;;14.60;99.90;;;;;;5057105;28;20235;-90
2022/08/28 08:48:28;;;;;;;17.77;4.90;;;14.60;99.90;;;;;;5061822;28;20338;-92
2022/08/28 08:51:05;;;;;;;10.23;4.37;;;14.60;99.90;;;;;;5064879;28;20227;-92
2022/08/28 08:53:43;;;;;;;12.53;4.70;;;14.60;99.90;;;;;;5062206;28;20234;-91
2022/08/28 08:56:20;;;;;;;12.77;4.60;;;14.60;99.90;;;;;;5062215;28;20283;-92
2022/08/28 08:58:55;;;;;;;13.30;4.50;;;14.50;99.90;;;;;;5062370;28;20246;-91
2022/08/28 09:01:31;;;;;;;12.17;4.50;;;14.50;99.90;;;;;;5061025;28;20231;-91
2022/08/28 09:04:11;;;;;;;9.73;4.53;;;14.50;99.90;;;;;;5061916;28;20235;-91
2022/08/28 09:06:52;;;;;;;10.93;4.53;;;14.40;99.90;;;;;;5062555;28;20322;-91
2022/08/28 09:09:31;;;;;;;12.53;4.57;;;14.40;99.90;;;;;;5061061;28;20231;-91
2022/08/28 09:12:04;;;;;;;10.97;4.40;;;14.40;99.90;;;;;;5058590;28;20212;-91
2022/08/28 09:14:48;;;;;;;12.07;4.63;;;14.30;99.90;;;;;;5056525;28;20240;-92
2022/08/28 09:17:24;;;;;;;10.60;4.70;;;14.30;99.90;;;;;;5038941;28;20224;-91
2022/08/28 09:19:55;;;;;;;11.40;4.30;;;14.30;99.90;;;;;;5038760;28;20197;-91
2022/08/28 09:22:29;;;;;;;11.47;4.57;;;14.20;99.90;;;;;;5037358;28;20249;-91
2022/08/28 09:25:00;;;;;;;10.83;4.57;;;14.30;99.90;;;;;;5039058;28;20208;-91
2022/08/28 09:27:35;;;;;;;9.63;4.67;;;14.20;99.90;;;;;;5038756;28;20602;-92
2022/08/28 09:30:11;;;;;;;12.47;4.50;;;14.20;99.90;;;;;;5039747;28;20228;-91
2022/08/28 09:32:44;;;;;;;10.50;4.23;;;14.20;99.90;;;;;;5038087;28;20212;-91
2022/08/28 09:35:26;;;;;;;13.20;4.90;;;14.10;99.90;;;;;;5038967;28;20242;-91
2022/08/28 09:38:18;;;;;;;11.63;4.90;;;14.10;99.90;;;;;;5037629;28;20217;-91
2022/08/28 09:43:47;;;;;;;11.10;4.57;;;14.00;99.90;;;;;;5021292;28;20208;-91
2022/08/28 09:46:23;;;;;;;16.87;4.77;;;14.00;99.90;;;;;;5056462;28;20267;-91
2022/08/28 09:49:10;;;;;;;12.70;5.10;;;14.00;99.90;;;;;;5058888;28;20251;-92
2022/08/28 09:51:43;;;;;;;11.73;4.70;;;13.90;99.90;;;;;;5057543;28;20618;-91
2022/08/28 09:54:23;;;;;;;10.87;4.70;;;13.90;99.90;;;;;;5058736;28;20258;-91
2022/08/28 09:56:55;;;;;;;12.57;4.60;;;13.90;99.90;;;;;;5057356;28;20892;-91
2022/08/28 09:59:28;;;;;;;10.03;4.57;;;13.80;99.90;;;;;;5058506;28;20612;-91
2022/08/28 10:02:11;;;;;;;10.80;4.83;;;13.80;99.90;;;;;;5059103;28;20722;-91
2022/08/28 10:05:00;;;;;;;13.60;4.60;;;13.80;99.90;;;;;;5073106;28;20212;-91
2022/08/28 10:07:40;;;;;;;15.10;5.23;;;13.70;99.90;;;;;;5075195;28;20235;-92
2022/08/28 10:10:29;;;;;;;9.23;5.07;;;13.70;99.90;;;;;;5073050;28;20648;-92
2022/08/28 10:13:09;;;;;;;15.53;5.70;;;13.70;99.90;;;;;;5057862;28;20303;-90
2022/08/28 10:16:00;;;;;;;14.93;4.93;;;13.70;99.90;;;;;;5044873;28;20263;-91
2022/08/28 10:18:39;;;;;;;13.00;5.83;;;13.70;99.90;;;;;;5039523;28;20228;-91
2022/08/28 10:21:19;;;;;;;13.27;5.23;;;13.60;99.90;;;;;;5038958;28;20271;-93
2022/08/28 10:24:11;;;;;;;13.60;5.30;;;13.60;99.90;;;;;;5039550;28;20236;-90
2022/08/28 10:26:52;;;;;;;10.23;4.83;;;13.60;99.90;;;;;;5039982;28;20316;-91
2022/08/28 10:29:34;;;;;;;13.00;4.73;;;13.70;99.90;;;;;;5040620;28;20556;-92
2022/08/28 10:32:21;;;;;;;9.43;4.67;;;13.60;99.90;;;;;;5049302;28;20193;-92
2022/08/28 10:35:04;;;;;;;12.03;4.73;;;13.60;99.90;;;;;;5057064;28;20203;-92
2022/08/28 10:37:45;;;;;;;11.43;4.60;;;13.60;99.90;;;;;;5055885;28;20193;-91
2022/08/28 10:40:22;;;;;;;13.37;4.90;;;13.60;99.90;;;;;;5052844;28;20263;-91
2022/08/28 10:43:05;;;;;;;10.33;5.27;;;13.50;99.90;;;;;;5042533;28;20205;-91
2022/08/28 10:45:38;;;;;;;14.37;5.37;;;13.50;99.90;;;;;;5051324;28;20227;-91
2022/08/28 10:48:19;;;;;;;15.00;6.00;;;13.50;99.90;;;;;;5056372;28;20285;-91
2022/08/28 10:50:55;;;;;;;11.83;4.93;;;13.50;99.90;;;;;;5058161;28;20633;-91
2022/08/28 10:53:32;;;;;;;13.27;5.13;;;13.50;99.90;;;;;;5057329;28;20208;-91
2022/08/28 10:56:08;;;;;;;11.07;5.00;;;13.50;99.90;;;;;;5057891;28;20204;-91
2022/08/28 10:58:42;;;;;;;11.63;4.87;;;13.50;99.90;;;;;;5058595;28;20215;-91
2022/08/28 11:01:16;;;;;;;11.93;4.93;;;13.40;99.90;;;;;;5059602;28;20254;-92
2022/08/28 11:03:49;;;;;;;7.30;4.50;;;13.40;99.90;;;;;;5056376;28;20291;-91
2022/08/28 11:06:27;;;;;;;13.90;4.77;;;13.40;99.90;;;;;;5056781;28;20247;-92
2022/08/28 11:09:23;;;;;;;9.33;4.60;;;13.30;99.90;;;;;;5057402;28;20250;-92
2022/08/28 11:11:55;;;;;;;7.63;4.80;;;13.30;99.90;;;;;;5056782;28;20204;-92
2022/08/28 11:14:37;;;;;;;9.83;4.53;;;13.20;99.90;;;;;;5056970;28;20223;-91
2022/08/28 11:17:42;;;;;;;8.93;4.37;;;13.20;99.90;;;;;;5057298;28;20224;-91
2022/08/28 11:20:17;;;;;;;14.03;5.03;;;13.20;99.90;;;;;;5056826;28;20227;-91
2022/08/28 11:22:54;;;;;;;13.90;4.87;;;13.20;99.90;;;;;;5056787;28;20207;-91
2022/08/28 11:25:28;;;;;;;10.07;4.97;;;13.10;99.90;;;;;;5056955;28;20220;-92
2022/08/28 11:28:18;;;;;;;10.80;4.73;;;13.10;99.90;;;;;;5056823;28;20235;-92
2022/08/28 11:31:29;;;;;;;12.07;4.73;;;13.10;99.90;;;;;;5056074;28;20258;-91
2022/08/28 11:34:01;;;;;;;9.80;4.63;;;13.00;99.90;;;;;;5056804;28;20212;-91
2022/08/28 11:37:01;;;;;;;8.53;4.83;;;12.90;99.90;;;;;;5056142;28;20220;-92
2022/08/28 11:39:32;;;;;;;13.93;4.90;;;12.90;99.90;;;;;;5056440;28;20261;-92
2022/08/28 11:42:37;;;;;;;11.10;4.93;;;12.90;99.90;;;;;;5056279;28;20232;-92
2022/08/28 11:45:18;;;;;;;10.97;5.10;;;12.80;99.90;;;;;;5053172;28;20208;-91
2022/08/28 11:48:06;;;;;;;11.93;5.03;;;12.70;99.90;;;;;;5062234;28;20228;-92
2022/08/28 11:50:54;;;;;;;11.93;4.80;;;12.70;99.90;;;;;;5063380;28;20247;-92
2022/08/28 11:53:39;;;;;;;10.43;5.60;;;12.70;99.90;;;;;;5059662;28;20730;-92
2022/08/28 11:56:45;;;;;;;8.43;4.13;;;12.70;99.90;;;;;;5060703;28;20265;-92
2022/08/28 11:59:46;;;;;;;12.60;4.90;;;12.70;99.90;;;;;;5062799;28;20219;-92
2022/08/28 12:02:59;;;;;;;10.13;4.60;;;12.70;99.90;;;;;;5062526;28;20811;-91
2022/08/28 12:05:59;;;;;;;8.30;4.57;;;12.70;99.90;;;;;;5060382;28;20235;-92
2022/08/28 12:09:09;;;;;;;11.33;4.93;;;12.70;99.90;;;;;;5062683;28;20232;-92
2022/08/28 12:11:55;;;;;;;9.80;4.67;;;12.60;99.90;;;;;;5062022;28;21094;-92
2022/08/28 12:15:02;;;;;;;8.90;4.80;;;12.60;99.90;;;;;;5060955;28;20749;-91
2022/08/28 12:17:53;;;;;;;10.63;4.63;;;12.50;99.90;;;;;;5059961;28;20234;-92
2022/08/28 12:20:36;;;;;;;13.90;5.40;;;12.40;99.90;;;;;;5062049;28;20200;-92
2022/08/28 12:23:36;;;;;;;10.47;5.50;;;12.40;99.90;;;;;;5059402;28;20286;-92
2022/08/28 12:26:10;;;;;;;10.03;4.80;;;12.40;99.90;;;;;;5060238;28;20275;-92
2022/08/28 12:28:49;;;;;;;13.00;5.67;;;12.30;99.90;;;;;;5059941;28;20266;-92
2022/08/28 12:32:14;;;;;;;14.67;5.23;;;12.30;99.90;;;;;;5060069;28;20518;-92
2022/08/28 12:35:08;;;;;;;13.57;5.37;;;12.30;99.90;;;;;;5060474;28;20262;-91
2022/08/28 12:37:41;;;;;;;10.57;6.10;;;12.30;99.90;;;;;;5059168;28;20201;-92
2022/08/28 12:40:27;;;;;;;12.57;5.97;;;12.30;99.90;;;;;;5039962;28;20205;-91
2022/08/28 12:43:00;;;;;;;11.53;6.20;;;12.40;99.90;;;;;;5039524;28;20220;-92
2022/08/28 12:45:36;;;;;;;12.87;6.30;;;12.40;99.90;;;;;;5054496;28;20208;-92
2022/08/28 12:48:15;;;;;;;18.00;6.47;;;12.50;99.90;;;;;;5059676;28;20598;-91
2022/08/28 12:50:47;;;;;;;14.03;5.83;;;12.50;99.90;;;;;;5060031;28;20212;-92
2022/08/28 12:53:19;;;;;;;12.57;6.20;;;12.50;99.90;;;;;;5060821;28;20671;-92
2022/08/28 12:55:52;;;;;;;11.57;5.83;;;12.60;99.90;;;;;;5075647;28;20227;-92
2022/08/28 12:58:32;;;;;;;13.43;5.93;;;12.60;99.90;;;;;;5078720;28;20208;-92
2022/08/28 13:01:07;;;;;;;11.10;5.83;;;12.60;99.90;;;;;;5078592;28;20195;-92
2022/08/28 13:03:50;;;;;;;12.70;5.57;;;12.60;99.90;;;;;;5077985;28;20204;-92
2022/08/28 13:06:26;;;;;;;10.73;5.73;;;12.50;99.90;;;;;;5078837;28;20220;-92
2022/08/28 13:09:03;;;;;;;16.37;6.53;;;12.50;99.90;;;;;;5078814;28;20224;-93
2022/08/28 13:11:39;;;;;;;13.60;5.73;;;12.50;99.90;;;;;;5078087;28;20196;-93
2022/08/28 13:14:42;;;;;;;10.80;5.67;;;12.50;99.90;;;;;;5100449;22;20222;-92
2022/08/28 13:17:16;;;;;;;12.13;5.93;;;12.50;99.90;;;;;;5089639;28;20219;-92
2022/08/28 13:20:02;;;;;;;12.63;5.60;;;12.50;99.90;;;;;;5095024;28;20241;-92
2022/08/28 13:22:36;;;;;;;12.30;6.17;;;12.60;99.90;;;;;;5079744;28;20617;-92
2022/08/28 13:25:09;;;;;;;12.80;6.20;;;12.60;99.90;;;;;;5081811;28;20276;-91
2022/08/28 13:27:46;;;;;;;9.20;5.23;;;12.60;99.90;;;;;;5082051;28;20227;-91
2022/08/28 13:30:25;;;;;;;12.13;6.57;;;12.70;99.90;;;;;;5079680;28;20223;-92
2022/08/28 13:32:59;;;;;;;16.20;6.13;;;12.70;99.90;;;;;;5081215;28;20233;-92
2022/08/28 13:35:35;;;;;;;14.87;6.10;;;12.70;99.90;;;;;;5086254;28;20214;-92